Latest Weather Observations for Lombadina

IDW60801

Issued at 10:03 pm WST Sunday 4 December 2016 (issued every 30 minutes, with the page automatically refreshed every 10 minutes)

About weather observations | Map of weather stations | Latest weather observations for WA | Other Formats
Station Details ID: 503016 Name: LOMBADINA AIRSTRIP Lat: -16.52 Lon: 122.92 Height: 42.0 m
Data from the previous 72 hours. | See also: Recent months for locations in Western Australia
Date/Time
WST
Temp
°C
App
Temp
°C
Dew
Point
°C
Rel
Hum
%
Delta-T
°C
Wind Press
QNH
hPa
Press
MSL
hPa
Rain since
9am
mm
Dir  Spd
km/h
Gust
km/h
Spd
kts
Gust
kts
04/10:00pm 28.1 34.4 25.3 85 2.0 S 2 6 1 3 1010.4 1010.0 18.6
04/09:30pm 28.5 34.3 25.1 82 2.4 W 4 7 2 4 1010.2 1009.8 18.6
04/09:00pm 28.5 34.3 25.1 82 2.4 W 4 7 2 4 1009.8 1009.4 18.6
04/08:30pm 28.7 34.2 25.3 82 2.4 WSW 6 7 3 4 1009.7 1009.3 18.6
04/08:00pm 28.8 34.1 25.2 81 2.5 WNW 7 11 4 6 1009.5 1009.1 18.6
04/07:30pm 28.9 34.3 25.5 82 2.4 WNW 7 13 4 7 1009.4 1009.0 18.6
04/07:00pm 28.9 33.8 25.3 81 2.5 WNW 9 17 5 9 1009.0 1008.6 18.6
04/06:30pm 29.0 34.5 25.6 82 2.4 WNW 7 15 4 8 1008.4 1008.0 18.6
04/06:00pm 29.0 33.6 25.4 81 2.5 W 11 17 6 9 1008.0 1007.6 18.6
04/05:30pm 29.2 33.4 25.4 80 2.7 W 13 20 7 11 1007.9 1007.5 18.6
04/05:00pm 29.5 33.7 25.3 78 3.0 WNW 13 20 7 11 1007.3 1006.9 18.6
04/04:30pm 30.0 34.4 25.7 78 3.1 WNW 13 22 7 12 1007.0 1006.6 18.6
04/04:00pm 30.3 34.9 26.0 78 3.1 WNW 13 22 7 12 1007.1 1006.7 18.6
04/03:30pm 30.0 34.6 26.0 79 2.8 W 13 22 7 12 1007.2 1006.8 18.6
04/03:00pm 30.3 35.2 25.8 77 3.2 WNW 11 20 6 11 1007.1 1006.7 18.6
04/02:30pm 30.5 35.1 26.0 77 3.2 NW 13 24 7 13 1007.6 1007.2 18.6
04/02:00pm 30.9 35.9 26.6 78 3.1 WNW 13 22 7 12 1007.8 1007.4 18.6
04/01:30pm 30.6 35.6 26.5 79 2.9 NNW 13 20 7 11 1008.0 1007.6 18.6
04/01:00pm 30.2 35.3 25.5 76 3.3 WNW 9 13 5 7 1008.3 1007.9 18.6
04/12:30pm 28.4 34.1 26.4 89 1.4 NNW 9 13 5 7 1008.3 1007.9 18.4
04/12:00pm 27.8 32.7 25.8 89 1.4 NW 11 13 6 7 1008.5 1008.1 18.2
04/11:30am 27.4 33.3 25.4 89 1.4 NW 4 6 2 3 1008.8 1008.4 18.0
04/11:11am 26.5 32.8 25.3 93 0.8 SE 2 7 1 4 1008.9 1008.5 17.8
04/11:00am 25.3 29.3 23.7 91 1.1 SSE 9 17 5 9 1009.0 1008.6 17.2
04/10:30am 26.8 30.7 24.8 89 1.4 NNE 13 20 7 11 1009.6 1009.2 4.8
04/10:18am 29.0 33.4 25.6 82 2.4 WNW 13 24 7 13 1009.3 1008.9 1.8
04/10:00am 32.2 35.7 22.9 58 6.4 WSW 9 17 5 9 1009.1 1008.7 0.0
04/09:30am 31.8 35.2 23.3 60 5.9 SSW 11 20 6 11 1009.4 1009.0 0.0
04/09:00am 32.1 36.5 24.4 63 5.4 S 9 17 5 9 1009.6 1009.2 2.2
04/08:30am 30.8 34.8 24.4 68 4.5 S 11 19 6 10 1009.6 1009.2 2.2
04/08:00am 30.1 34.5 24.5 72 3.9 S 9 17 5 9 1009.4 1009.0 2.2
04/07:30am 29.7 34.9 24.8 75 3.4 S 6 11 3 6 1009.4 1009.0 2.2
04/07:00am 28.8 33.8 24.8 79 2.8 SSE 7 11 4 6 1009.2 1008.8 2.2
04/06:30am 28.5 34.8 24.7 80 2.7 CALM 0 4 0 2 1009.1 1008.7 2.2
04/06:00am 28.5 34.6 24.5 79 2.8 CALM 0 0 0 0 1009.2 1008.8 2.2
04/05:30am 28.4 33.7 24.4 79 2.8 SSW 4 7 2 4 1008.8 1008.4 2.2
04/05:00am 28.6 33.5 24.4 78 2.9 SW 6 9 3 5 1008.8 1008.4 2.2
04/04:30am 28.8 33.6 24.4 77 3.1 WSW 7 15 4 8 1008.9 1008.5 2.2
04/04:00am 28.8 33.6 24.4 77 3.1 W 7 13 4 7 1009.0 1008.6 2.2
04/03:30am 28.8 33.8 24.8 79 2.8 W 7 15 4 8 1008.8 1008.4 2.2
04/03:00am 28.8 33.4 24.8 79 2.8 W 9 17 5 9 1008.5 1008.1 2.2
04/02:30am 28.7 33.3 24.7 79 2.8 W 9 17 5 9 1008.1 1007.7 2.2
04/02:00am 28.7 33.1 24.5 78 2.9 W 9 17 5 9 1008.4 1008.0 2.2
04/01:30am 28.9 33.3 24.5 77 3.1 W 9 17 5 9 1008.7 1008.3 2.2
04/01:00am 28.9 33.3 24.5 77 3.1 W 9 19 5 10 1008.6 1008.2 2.2
04/12:30am 28.9 33.5 24.7 78 2.9 W 9 17 5 9 1008.7 1008.3 2.2
04/12:00am 28.9 33.3 24.5 77 3.1 W 9 17 5 9 1008.9 1008.5 2.2
 
Date/Time
WST
Temp
°C
App
Temp
°C
Dew
Point
°C
Rel
Hum
%
Delta-T
°C
Wind Press
QNH
hPa
Press
MSL
hPa
Rain since
9am
mm
Dir  Spd
km/h
Gust
km/h
Spd
kts
Gust
kts
03/11:30pm 28.9 33.7 24.5 77 3.1 W 7 13 4 7 1009.4 1009.0 2.2
03/11:00pm 29.1 33.3 24.7 77 3.1 W 11 19 6 10 1009.5 1009.1 2.2
03/10:30pm 29.1 33.5 24.4 76 3.3 W 9 17 5 9 1009.9 1009.5 2.2
03/10:00pm 29.2 33.8 24.7 77 3.2 W 9 19 5 10 1010.0 1009.6 2.2
03/09:30pm 29.3 34.5 24.8 77 3.2 W 6 11 3 6 1009.8 1009.4 2.2
03/09:00pm 29.2 34.1 24.7 77 3.2 W 7 15 4 8 1009.7 1009.3 2.2
03/08:30pm 29.2 33.6 24.5 76 3.3 W 9 17 5 9 1009.4 1009.0 2.2
03/08:00pm 29.3 34.2 24.6 76 3.3 WNW 7 13 4 7 1009.2 1008.8 2.2
03/07:30pm 29.4 33.7 24.3 74 3.6 WNW 9 13 5 7 1008.8 1008.4 2.2
03/07:00pm 29.5 33.7 24.1 72 3.8 W 9 17 5 9 1008.5 1008.1 2.2
03/06:30pm 29.7 33.5 24.1 72 3.9 W 11 17 6 9 1008.0 1007.6 2.2
03/06:00pm 29.9 33.2 23.8 70 4.2 W 13 20 7 11 1007.7 1007.3 2.2
03/05:30pm 30.5 34.1 23.7 67 4.7 W 11 20 6 11 1007.5 1007.1 2.2
03/05:00pm 30.7 33.9 23.1 64 5.2 W 11 19 6 10 1007.3 1006.9 2.2
03/04:30pm 31.1 33.4 22.1 58 6.1 WNW 13 19 7 10 1007.3 1006.9 2.2
03/04:00pm 32.3 34.6 22.1 55 7.0 W 13 22 7 12 1007.2 1006.8 2.2
03/03:30pm 31.7 34.0 22.1 56 6.5 W 13 20 7 11 1007.3 1006.9 2.2
03/03:00pm 32.1 35.1 23.3 59 6.1 WNW 13 26 7 14 1007.5 1007.1 2.2
03/02:30pm 31.7 33.1 21.8 55 6.7 WNW 17 26 9 14 1007.5 1007.1 2.2
03/02:00pm 31.5 33.8 24.1 65 5.2 WNW 19 32 10 17 1007.8 1007.4 2.2
03/01:30pm 31.1 34.2 23.5 64 5.3 WNW 13 28 7 15 1008.1 1007.7 2.2
03/01:00pm 28.5 31.2 21.3 65 4.8 SE 9 19 5 10 1008.6 1008.2 2.2
03/12:57pm 27.9 31.0 22.2 71 3.8 SE 9 19 5 10 1008.7 1008.3 2.2
03/12:38pm 26.4 27.6 21.4 74 3.3 ESE 17 41 9 22 1009.2 1008.8 1.6
03/12:37pm 26.7 28.2 21.2 72 3.6 ESE 15 37 8 20 1009.2 1008.8 1.0
03/12:30pm 32.2 36.0 23.4 59 6.1 NNW 9 15 5 8 1009.2 1008.8 0.0
03/12:00pm 32.7 35.7 23.3 57 6.5 WNW 13 24 7 13 1009.2 1008.8 0.0
03/11:30am 32.7 35.6 20.6 49 8.1 ENE 6 15 3 8 1009.0 1008.6 0.0
03/11:00am 30.2 32.0 19.6 53 7.0 SE 9 17 5 9 1009.6 1009.2 0.0
03/10:30am 31.7 34.0 23.5 62 5.7 WNW 17 26 9 14 1009.5 1009.1 0.0
03/10:00am 31.9 34.3 23.7 62 5.7 WNW 17 28 9 15 1009.9 1009.5 0.0
03/09:30am 32.3 35.7 24.1 62 5.7 WNW 13 22 7 12 1009.9 1009.5 0.0
03/09:00am 31.1 35.0 24.2 66 4.8 NW 11 20 6 11 1010.3 1009.9 0.0
03/08:30am 32.0 35.8 24.1 63 5.5 W 11 20 6 11 1010.1 1009.7 0.0
03/08:00am 31.1 33.9 23.0 62 5.6 W 13 20 7 11 1009.7 1009.3 0.0
03/07:30am 30.6 34.6 23.8 67 4.7 W 9 19 5 10 1009.6 1009.2 0.0
03/07:00am 30.2 34.2 24.4 71 4.1 WNW 11 22 6 12 1009.2 1008.8 0.0
03/06:30am 29.8 33.7 24.2 72 3.9 WNW 11 19 6 10 1008.9 1008.5 0.0
03/06:00am 29.1 34.2 24.9 78 2.9 W 7 11 4 6 1008.6 1008.2 0.0
03/05:30am 28.2 33.2 24.8 82 2.4 W 7 15 4 8 1008.4 1008.0 0.0
03/05:00am 27.8 33.0 24.8 84 2.1 WSW 6 9 3 5 1008.3 1007.9 0.0
03/04:30am 28.1 34.1 24.9 83 2.2 W 2 9 1 5 1008.2 1007.8 0.0
03/04:00am 28.3 33.6 24.9 82 2.4 W 6 13 3 7 1007.7 1007.3 0.0
03/03:30am 28.2 33.5 25.0 83 2.2 W 6 11 3 6 1007.3 1006.9 0.0
03/03:00am 28.3 33.7 25.1 83 2.2 W 6 11 3 6 1007.2 1006.8 0.0
03/02:30am 28.2 33.3 25.0 83 2.2 W 7 15 4 8 1007.2 1006.8 0.0
03/02:00am 28.4 33.8 25.2 83 2.3 W 6 13 3 7 1007.3 1006.9 0.0
03/01:30am 28.6 33.1 25.2 82 2.4 W 11 20 6 11 1007.3 1006.9 0.0
03/01:00am 28.5 32.9 25.1 82 2.4 W 11 19 6 10 1007.3 1006.9 0.0
03/12:30am 28.6 33.5 25.2 82 2.4 W 9 17 5 9 1007.7 1007.3 0.0
03/12:00am 28.7 32.7 25.1 81 2.5 W 13 20 7 11 1007.6 1007.2 0.0
 
Date/Time
WST
Temp
°C
App
Temp
°C
Dew
Point
°C
Rel
Hum
%
Delta-T
°C
Wind Press
QNH
hPa
Press
MSL
hPa
Rain since
9am
mm
Dir  Spd
km/h
Gust
km/h
Spd
kts
Gust
kts
02/11:30pm 28.7 32.6 24.9 80 2.7 W 13 22 7 12 1007.8 1007.4 0.0
02/11:00pm 28.7 33.4 24.9 80 2.7 W 9 17 5 9 1008.0 1007.6 0.0
02/10:30pm 28.8 33.4 24.8 79 2.8 WNW 9 15 5 8 1008.2 1007.8 0.0
02/10:00pm 28.9 33.5 24.7 78 2.9 W 9 15 5 8 1008.4 1008.0 0.0
02/09:30pm 28.9 34.0 24.9 79 2.8 W 7 13 4 7 1008.6 1008.2 0.0
02/09:00pm 28.9 33.8 24.7 78 2.9 W 7 15 4 8 1008.4 1008.0 0.0
02/08:30pm 29.1 34.2 24.9 78 2.9 W 7 11 4 6 1008.4 1008.0 0.0
02/08:00pm 29.2 34.1 24.7 77 3.2 W 7 17 4 9 1008.2 1007.8 0.0
02/07:30pm 29.5 32.9 24.6 75 3.4 WNW 15 26 8 14 1007.7 1007.3 0.0
02/07:00pm 29.6 33.4 24.7 75 3.4 WNW 13 20 7 11 1007.0 1006.6 0.0
02/06:30pm 29.8 34.4 24.2 72 3.9 W 7 15 4 8 1006.7 1006.3 0.0
02/06:00pm 30.1 32.8 23.5 67 4.6 WNW 15 24 8 13 1006.5 1006.1 0.0
02/05:30pm 30.8 33.5 24.2 68 4.6 WNW 17 28 9 15 1006.2 1005.8 0.0
02/05:00pm 31.5 34.5 23.3 61 5.7 W 13 30 7 16 1006.2 1005.8 0.0
02/04:30pm 31.2 32.6 22.5 60 5.9 WNW 19 32 10 17 1005.9 1005.5 0.0
02/04:00pm 31.8 33.8 23.6 62 5.7 W 19 28 10 15 1006.7 1006.3 0.0
02/03:30pm 32.2 35.3 24.8 65 5.2 W 17 32 9 17 1006.8 1006.4 0.0
02/03:00pm 33.0 36.2 25.0 63 5.7 W 17 32 9 17 1007.3 1006.9 0.0
02/02:30pm 32.5 35.0 24.5 62 5.6 WNW 19 30 10 16 1007.5 1007.1 0.0
02/02:00pm 31.9 33.6 24.0 63 5.5 WNW 22 32 12 17 1007.5 1007.1 0.0
02/01:30pm 32.9 35.3 24.6 61 5.8 WNW 20 32 11 17 1007.4 1007.0 0.0
02/01:00pm 33.0 35.5 24.5 61 6.0 WNW 19 30 10 16 1007.7 1007.3 0.0
02/12:30pm 32.9 35.2 24.4 61 6.0 WNW 20 32 11 17 1008.2 1007.8 0.0
02/12:00pm 33.1 35.5 24.3 60 6.2 WNW 19 30 10 16 1008.3 1007.9 0.0
02/11:30am 32.9 34.7 23.2 56 6.7 WNW 19 30 10 16 1008.5 1008.1 0.0
02/11:00am 33.4 36.4 24.0 58 6.6 W 15 30 8 16 1009.0 1008.6 0.0
02/10:30am 33.3 35.9 23.9 58 6.6 W 17 32 9 17 1008.9 1008.5 0.0
02/10:00am 32.9 36.3 24.6 61 5.9 W 15 28 8 15 1009.2 1008.8 0.0
02/09:30am 32.5 35.4 24.5 62 5.6 W 17 30 9 16 1009.3 1008.9 0.0
02/09:00am 31.7 34.5 24.3 65 5.2 WSW 17 30 9 16 1009.1 1008.7 0.0
02/08:30am 31.0 34.3 25.1 71 4.2 W 17 28 9 15 1008.8 1008.4 0.0
02/08:00am 31.0 34.2 24.9 70 4.3 W 17 32 9 17 1008.7 1008.3 0.0
02/07:30am 30.4 32.9 24.5 70 4.1 W 19 32 10 17 1008.3 1007.9 0.0
02/07:00am 30.0 33.2 25.5 77 3.2 W 19 30 10 16 1007.9 1007.5 0.0
02/06:30am 29.9 34.3 25.6 78 3.0 W 13 26 7 14 1007.5 1007.1 0.0
02/06:00am 29.4 33.4 25.6 80 2.7 W 15 26 8 14 1007.2 1006.8 0.0
02/05:30am 28.9 32.9 25.1 80 2.7 W 13 20 7 11 1007.2 1006.8 0.0
02/05:00am 28.9 33.2 25.5 82 2.4 W 13 26 7 14 1007.2 1006.8 0.0
02/04:30am 28.9 33.5 25.3 81 2.5 WNW 11 22 6 12 1006.9 1006.5 0.0
02/04:00am 28.8 33.2 25.6 83 2.3 WNW 13 22 7 12 1006.5 1006.1 0.0
02/03:30am 28.8 32.5 24.6 78 2.9 WNW 13 20 7 11 1006.1 1005.7 0.0
02/03:00am 28.9 33.2 24.9 79 2.8 WNW 11 20 6 11 1006.2 1005.8 0.0
02/02:30am 28.9 33.1 24.7 78 2.9 WNW 11 20 6 11 1006.3 1005.9 0.0
02/02:00am 29.0 32.9 24.8 78 2.9 WNW 13 22 7 12 1005.9 1005.5 0.0
02/01:30am 29.0 33.5 25.2 80 2.7 WNW 11 19 6 10 1006.2 1005.8 0.0
02/01:00am 28.9 33.5 24.7 78 2.9 W 9 17 5 9 1006.2 1005.8 0.0
02/12:30am 29.0 33.7 25.0 79 2.8 W 9 15 5 8 1006.6 1006.2 0.0
02/12:00am 28.8 34.1 25.2 81 2.5 WNW 7 15 4 8 1006.9 1006.5 0.0
 
Date/Time
WST
Temp
°C
App
Temp
°C
Dew
Point
°C
Rel
Hum
%
Delta-T
°C
Wind Press
QNH
hPa
Press
MSL
hPa
Rain since
9am
mm
Dir  Spd
km/h
Gust
km/h
Spd
kts
Gust
kts
01/11:30pm 28.8 33.8 25.4 82 2.4 WNW 9 17 5 9 1007.2 1006.8 0.0
01/11:00pm 28.8 33.9 25.6 83 2.3 W 9 17 5 9 1007.4 1007.0 0.0
01/10:30pm 29.0 34.3 25.8 83 2.3 WNW 9 15 5 8 1007.8 1007.4 0.0

Other Formats:

Comma delimited format used in spreadsheet applications
http://www.bom.gov.au/fwo/IDW60801/IDW60801.99206.axf

JavaScript Object Notation format (JSON) in row-major order
http://www.bom.gov.au/fwo/IDW60801/IDW60801.99206.json